Mc Guire Air Force Base
KWRI : rendu visible

Aérodrome :











RETROUVEZ-NOUS SUR...

 
LOGIN :

S'inscrire | Disclaimer

   EN    FR    IT 

 









Légende :    VFR   VFR Marginal   IFR   IFR Intensif   IFR Très Intensif
Visi : 
Plafond : 
>= 8 km
>= 3000ft
5 à 8 km
1000 à 3000 ft
1500m à 5 km
500 à 1000 ft
800 à 1500m
200 à 500 ft
< 800m
< 200 ft
Symboles :   Orages  Brouillard  Fortes neiges  Fortes précipitations  Vent > 20 kt






- Altitude de l'aérodrome : 131 ft
- Code IATA : WRI


KWRI - Mc Guire Air Force Base

DERNIER METAR :
  • 161856Z AUTO 24009KT 10SM OVC120 08/M04 A3010 RMK AO2 SLP194 T00771044 $

METARs EXPIRÉS :
  • 161756Z AUTO 24007KT 10SM BKN120 08/M04 A3013 RMK AO2 SLP204 T00811037 10083 21026 57026 $
  • 161656Z AUTO 27007KT 10SM BKN120 06/M03 A3016 RMK AO2 SLP214 T00581030 $

TAF TAF KWRI
Valide du 16 à 18h jusqu'au 18 à 00h UTC


161800Z 1618/1724 24006KT 9999 BKN110 QNH3007INS
BECMG 1707/1708 30006KT 9999 SCT030 BKN060 QNH3011INS
BECMG 1713/1714 01007KT 9999 FEW250 QNH3024INS TX17/1620Z TNM01/1712Z



MET'MAP, la Météo Aéronautique d'un coup d'oeil ! - Copyright ORBIFLY Décembre 2007 - Disclaimer

ORBIFLY MET'MAP TEAM :

Programmation & Développement : Alexandra Zaïnal
Sur une idée originale de : Baudouin d'Aumeries
Assistance à la programmation : Marc-Olivier Méhu
Soutien technique & logistique : Manuel Goepfert

Contact : metmap@orbifly.com




SOURCES & CREDITS :

   NOAA       Earth
Advisory